createdAt,value
2018-05-09T00:00:43.643Z,48.10
2018-05-09T00:03:11.844Z,48.30
2018-05-09T00:05:39.323Z,48.30
2018-05-09T00:08:06.788Z,48.90
2018-05-09T00:10:34.230Z,49.10
2018-05-09T00:13:01.711Z,49.30
2018-05-09T00:15:29.160Z,49.20
2018-05-09T00:17:56.670Z,49.40
2018-05-09T00:20:25.098Z,49.40
2018-05-09T00:22:52.542Z,49.40
2018-05-09T00:25:19.982Z,49.40
2018-05-09T00:27:47.641Z,49.70
2018-05-09T00:30:15.534Z,49.70
2018-05-09T00:32:42.969Z,49.70
2018-05-09T00:35:11.037Z,49.80
2018-05-09T00:37:38.979Z,50.00
2018-05-09T00:40:06.497Z,50.10
2018-05-09T00:42:34.335Z,50.10
2018-05-09T00:45:02.137Z,50.30
2018-05-09T00:47:30.964Z,50.50
2018-05-09T00:49:58.467Z,50.40
2018-05-09T00:52:25.925Z,50.50
2018-05-09T00:54:53.999Z,50.50
2018-05-09T00:57:22.040Z,50.40
2018-05-09T00:59:49.506Z,50.60
2018-05-09T01:02:16.945Z,50.80
2018-05-09T01:04:44.424Z,50.90
2018-05-09T01:07:11.859Z,51.10
2018-05-09T01:09:39.531Z,51.20
2018-05-09T01:12:06.977Z,51.20
2018-05-09T01:14:35.225Z,51.50
2018-05-09T01:17:02.723Z,51.80
2018-05-09T01:19:30.322Z,51.80
2018-05-09T01:21:58.647Z,51.90
2018-05-09T01:24:26.173Z,51.90
2018-05-09T01:26:53.638Z,51.90
2018-05-09T01:29:21.938Z,52.00
2018-05-09T01:31:49.807Z,52.00
2018-05-09T01:34:17.570Z,52.00
2018-05-09T01:36:45.497Z,52.00
2018-05-09T01:39:12.946Z,52.10
2018-05-09T01:41:40.892Z,52.00
2018-05-09T01:44:08.343Z,52.20
2018-05-09T01:46:36.311Z,52.30
2018-05-09T01:49:03.747Z,52.70
2018-05-09T01:51:31.268Z,52.70
2018-05-09T01:53:59.473Z,53.10
2018-05-09T01:56:28.270Z,53.30
2018-05-09T01:58:55.711Z,53.20
2018-05-09T02:01:23.527Z,53.50
2018-05-09T02:03:50.966Z,53.60
2018-05-09T02:06:18.853Z,53.80
2018-05-09T02:08:46.357Z,53.90
2018-05-09T02:11:14.607Z,54.00
2018-05-09T02:13:42.233Z,54.00
2018-05-09T02:16:09.689Z,54.00
2018-05-09T02:18:37.155Z,54.00
2018-05-09T02:21:05.275Z,54.00
2018-05-09T02:23:33.507Z,54.10
2018-05-09T02:26:00.964Z,54.00
2018-05-09T02:28:28.426Z,54.20
2018-05-09T02:30:56.375Z,54.20
2018-05-09T02:33:23.839Z,54.20
2018-05-09T02:35:51.531Z,54.30
2018-05-09T02:38:19.804Z,54.50
2018-05-09T02:40:48.660Z,54.50
2018-05-09T02:43:16.593Z,54.30
2018-05-09T02:45:45.215Z,54.60
2018-05-09T02:48:15.274Z,55.00
2018-05-09T02:50:42.735Z,55.00
2018-05-09T02:53:11.071Z,55.20
2018-05-09T02:55:38.509Z,55.20
2018-05-09T02:58:06.473Z,55.30
2018-05-09T03:00:33.918Z,55.30
2018-05-09T03:03:02.744Z,55.20
2018-05-09T03:05:30.187Z,55.40
2018-05-09T03:08:00.600Z,55.50
2018-05-09T03:10:28.184Z,55.50
2018-05-09T03:12:56.250Z,55.70
2018-05-09T03:15:24.006Z,55.80
2018-05-09T03:17:51.914Z,55.80
2018-05-09T03:20:19.514Z,55.90
2018-05-09T03:22:46.912Z,56.00
2018-05-09T03:25:14.575Z,56.10
2018-05-09T03:27:42.799Z,55.60
2018-05-09T03:30:10.589Z,56.00
2018-05-09T03:32:38.057Z,55.90
2018-05-09T03:35:05.906Z,56.00
2018-05-09T03:37:33.363Z,56.00
2018-05-09T03:40:01.051Z,56.10
2018-05-09T03:42:29.025Z,56.20
2018-05-09T03:44:56.973Z,56.50
2018-05-09T03:47:25.131Z,56.60
2018-05-09T03:49:52.739Z,56.70
2018-05-09T03:52:20.953Z,57.10
2018-05-09T03:54:48.763Z,57.00
2018-05-09T03:57:17.359Z,57.40
2018-05-09T03:59:45.631Z,57.40
2018-05-09T04:05:25.542Z,57.40
2018-05-09T04:08:05.452Z,57.80
2018-05-09T04:10:32.997Z,58.00
2018-05-09T04:13:01.031Z,58.00
2018-05-09T04:15:30.045Z,58.10
2018-05-09T04:17:57.592Z,58.20
2018-05-09T04:20:25.202Z,58.10
2018-05-09T04:22:53.136Z,58.20
2018-05-09T04:25:20.920Z,58.10
2018-05-09T04:27:48.405Z,58.10
2018-05-09T04:30:18.818Z,58.30
2018-05-09T04:32:46.364Z,58.30
2018-05-09T04:35:14.931Z,58.40
2018-05-09T04:37:42.921Z,58.40
2018-05-09T04:40:10.394Z,58.60
2018-05-09T04:42:38.245Z,58.60
2018-05-09T04:45:05.689Z,58.60
2018-05-09T04:47:34.547Z,58.70
2018-05-09T04:50:02.521Z,58.70
2018-05-09T04:52:29.988Z,58.80
2018-05-09T04:54:57.733Z,58.80
2018-05-09T04:57:25.896Z,58.70
2018-05-09T04:59:53.352Z,58.90
2018-05-09T05:02:21.438Z,59.00
2018-05-09T05:04:48.886Z,59.00
2018-05-09T05:07:16.351Z,59.00
2018-05-09T05:09:45.342Z,59.00
2018-05-09T05:12:12.948Z,59.60
2018-05-09T05:14:40.421Z,59.00
2018-05-09T05:17:08.335Z,59.10
2018-05-09T05:19:36.587Z,59.10
2018-05-09T05:22:04.476Z,59.10
2018-05-09T05:24:31.942Z,59.00
2018-05-09T05:27:02.752Z,58.80
2018-05-09T05:29:30.868Z,59.10
2018-05-09T05:31:58.680Z,59.00
2018-05-09T05:34:26.293Z,58.70
2018-05-09T05:36:54.922Z,58.40
2018-05-09T05:39:22.777Z,58.40
2018-05-09T05:41:51.625Z,58.20
2018-05-09T05:44:19.134Z,58.00
2018-05-09T05:46:47.247Z,57.80
2018-05-09T05:49:15.840Z,57.60
2018-05-09T05:51:44.327Z,57.60
2018-05-09T05:54:11.797Z,57.50
2018-05-09T05:56:40.278Z,57.60
2018-05-09T05:59:08.583Z,57.20
2018-05-09T06:01:36.273Z,57.10
2018-05-09T06:04:03.716Z,57.30
2018-05-09T06:06:31.191Z,57.00
2018-05-09T06:08:58.847Z,56.80
2018-05-09T06:11:26.347Z,56.60
2018-05-09T06:13:53.953Z,57.00
2018-05-09T06:16:21.718Z,57.10
2018-05-09T06:18:49.263Z,57.10
2018-05-09T06:21:16.749Z,57.10
2018-05-09T06:23:44.517Z,57.00
2018-05-09T06:26:11.972Z,56.80
2018-05-09T06:28:39.558Z,56.90
2018-05-09T06:31:07.275Z,57.00
2018-05-09T06:33:34.741Z,56.90
2018-05-09T06:36:02.704Z,57.60
2018-05-09T06:38:30.159Z,57.00
2018-05-09T06:40:57.912Z,56.80
2018-05-09T06:43:25.728Z,56.90
2018-05-09T06:45:54.373Z,56.70
2018-05-09T06:48:22.367Z,56.60
2018-05-09T06:50:51.082Z,55.90
2018-05-09T06:53:18.529Z,55.90
2018-05-09T06:55:46.265Z,55.80
2018-05-09T06:58:14.334Z,56.00
2018-05-09T07:00:42.754Z,56.10
2018-05-09T07:03:11.791Z,56.10
2018-05-09T07:05:40.019Z,55.70
2018-05-09T07:08:08.092Z,55.80
2018-05-09T07:10:35.597Z,56.00
2018-05-09T07:13:03.047Z,56.30
2018-05-09T07:15:30.556Z,56.60
2018-05-09T07:17:58.027Z,56.40
2018-05-09T07:20:25.546Z,56.30
2018-05-09T07:22:53.800Z,56.80
2018-05-09T07:25:22.076Z,56.60
2018-05-09T07:27:49.564Z,56.40
2018-05-09T07:30:18.110Z,56.00
2018-05-09T07:32:45.783Z,56.00
2018-05-09T07:35:13.661Z,56.00
2018-05-09T07:37:42.142Z,55.50
2018-05-09T07:40:09.625Z,55.90
2018-05-09T07:42:37.714Z,55.90
2018-05-09T07:45:05.227Z,55.90
2018-05-09T07:47:33.467Z,55.00
2018-05-09T07:50:00.907Z,54.60
2018-05-09T07:52:28.353Z,54.10
2018-05-09T07:54:56.152Z,54.80
2018-05-09T07:57:24.118Z,54.60
2018-05-09T07:59:51.589Z,53.60
2018-05-09T08:02:19.453Z,53.50
2018-05-09T08:04:47.328Z,53.50
2018-05-09T08:07:14.798Z,54.00
2018-05-09T08:09:42.284Z,53.20
2018-05-09T08:12:10.332Z,53.10
2018-05-09T08:14:37.818Z,51.90
2018-05-09T08:17:06.216Z,50.80
2018-05-09T08:19:33.784Z,51.20
2018-05-09T08:22:01.398Z,51.60
2018-05-09T08:24:29.072Z,50.90
2018-05-09T08:26:56.514Z,50.30
2018-05-09T08:29:23.992Z,51.40
2018-05-09T08:31:52.808Z,51.70
2018-05-09T08:34:20.235Z,51.20
2018-05-09T08:36:48.234Z,51.40
2018-05-09T08:39:16.005Z,51.30
2018-05-09T08:41:43.774Z,51.40
2018-05-09T08:44:11.244Z,50.90
2018-05-09T08:46:39.087Z,51.00
2018-05-09T08:49:07.075Z,49.60
2018-05-09T08:51:34.504Z,49.70
2018-05-09T08:54:02.395Z,49.50
2018-05-09T08:56:30.459Z,49.80
2018-05-09T08:58:58.728Z,48.50
2018-05-09T09:01:26.266Z,47.90
2018-05-09T09:03:53.881Z,48.30
2018-05-09T09:06:22.105Z,47.00
2018-05-09T09:08:50.135Z,47.00
2018-05-09T09:11:17.948Z,48.40
2018-05-09T09:13:45.449Z,46.90
2018-05-09T09:16:13.657Z,47.80
2018-05-09T09:18:41.205Z,47.70
2018-05-09T09:21:08.611Z,47.80
2018-05-09T09:23:36.511Z,47.60
2018-05-09T09:26:03.971Z,47.60
2018-05-09T09:28:31.954Z,48.20
2018-05-09T09:30:59.807Z,47.70
2018-05-09T09:33:27.375Z,48.10
2018-05-09T09:35:55.248Z,45.60
2018-05-09T09:38:22.684Z,44.90
2018-05-09T09:40:50.857Z,46.60
2018-05-09T09:43:18.883Z,47.00
2018-05-09T09:45:47.032Z,45.90
2018-05-09T09:48:14.486Z,46.00
2018-05-09T09:50:42.037Z,45.90
2018-05-09T09:53:09.543Z,45.60
2018-05-09T09:55:37.082Z,44.90
2018-05-09T09:58:05.032Z,43.30
2018-05-09T10:00:32.464Z,42.80
2018-05-09T10:03:00.071Z,41.90
2018-05-09T10:05:27.532Z,41.00
2018-05-09T10:07:55.002Z,41.00
2018-05-09T10:10:22.808Z,39.40
2018-05-09T10:12:55.338Z,37.40
2018-05-09T10:15:24.028Z,38.90
2018-05-09T10:17:52.267Z,38.80
2018-05-09T10:20:19.723Z,38.20
2018-05-09T10:22:47.199Z,38.40
2018-05-09T10:25:14.647Z,38.80
2018-05-09T10:27:42.231Z,38.00
2018-05-09T10:30:10.005Z,37.00
2018-05-09T10:32:37.490Z,37.10
2018-05-09T10:35:05.552Z,37.20
2018-05-09T10:37:33.308Z,36.90
2018-05-09T10:40:01.967Z,36.80
2018-05-09T10:42:30.432Z,36.80
2018-05-09T10:44:58.683Z,35.70
2018-05-09T10:47:26.545Z,35.60
2018-05-09T10:49:54.004Z,35.80
2018-05-09T10:52:23.049Z,35.40
2018-05-09T10:54:50.510Z,34.90
2018-05-09T10:57:19.124Z,35.20
2018-05-09T10:59:47.034Z,35.20
2018-05-09T11:02:14.475Z,33.70
2018-05-09T11:04:41.936Z,33.50
2018-05-09T11:07:09.379Z,33.40
2018-05-09T11:09:36.936Z,30.80
2018-05-09T11:12:04.731Z,31.70
2018-05-09T11:14:32.290Z,32.60
2018-05-09T11:17:01.697Z,33.20
2018-05-09T11:19:29.134Z,33.20
2018-05-09T11:21:57.223Z,33.30
2018-05-09T11:24:24.696Z,32.70
2018-05-09T11:26:52.142Z,32.10
2018-05-09T11:29:19.964Z,32.90
2018-05-09T11:31:47.727Z,33.10
2018-05-09T11:34:15.568Z,32.40
2018-05-09T11:36:43.379Z,31.60
2018-05-09T11:39:10.900Z,32.20
2018-05-09T11:41:38.800Z,31.90
2018-05-09T11:44:06.357Z,32.60
2018-05-09T11:46:34.339Z,32.60
2018-05-09T11:52:32.805Z,33.00
2018-05-09T11:55:00.248Z,30.10
2018-05-09T11:57:28.136Z,30.80
2018-05-09T11:59:55.668Z,31.70
2018-05-09T12:02:23.685Z,29.80
2018-05-09T12:04:51.128Z,29.50
2018-05-09T12:07:18.617Z,29.60
2018-05-09T12:09:46.381Z,31.80
2018-05-09T12:12:13.884Z,32.60
2018-05-09T12:14:42.713Z,31.30
2018-05-09T12:17:10.508Z,30.50
2018-05-09T12:19:38.721Z,32.30
2018-05-09T12:22:06.200Z,31.70
2018-05-09T12:24:33.759Z,31.40
2018-05-09T12:27:01.184Z,31.60
2018-05-09T12:29:28.769Z,31.30
2018-05-09T12:31:56.665Z,30.10
2018-05-09T12:34:24.206Z,30.60
2018-05-09T12:36:52.101Z,29.90
2018-05-09T12:39:19.595Z,29.60
2018-05-09T12:41:48.324Z,30.00
2018-05-09T12:44:16.231Z,27.80
2018-05-09T12:46:45.094Z,29.80
2018-05-09T12:49:12.557Z,29.80
2018-05-09T12:51:40.799Z,30.70
2018-05-09T12:54:08.272Z,30.70
2018-05-09T12:56:36.751Z,30.30
2018-05-09T12:59:04.496Z,29.80
2018-05-09T13:01:32.162Z,30.80
2018-05-09T13:03:59.840Z,30.00
2018-05-09T13:06:27.393Z,29.70
2018-05-09T13:08:55.673Z,29.80
2018-05-09T13:11:23.751Z,29.80
2018-05-09T13:13:51.353Z,29.50
2018-05-09T13:16:19.224Z,30.00
2018-05-09T13:18:47.035Z,31.10
2018-05-09T13:21:14.472Z,31.50
2018-05-09T13:23:41.935Z,32.20
2018-05-09T13:26:09.586Z,30.40
2018-05-09T13:28:37.167Z,30.10
2018-05-09T13:31:05.840Z,30.30
2018-05-09T13:33:33.341Z,30.00
2018-05-09T13:36:02.088Z,30.00
2018-05-09T13:38:29.537Z,30.00
2018-05-09T13:40:57.619Z,30.80
2018-05-09T13:43:25.083Z,31.60
2018-05-09T13:45:53.073Z,33.20
2018-05-09T13:48:22.043Z,32.90
2018-05-09T13:50:49.904Z,32.90
2018-05-09T13:53:17.423Z,31.50
2018-05-09T13:55:44.872Z,30.60
2018-05-09T13:58:12.986Z,30.70
2018-05-09T14:00:40.468Z,29.70
2018-05-09T14:03:07.946Z,30.10
2018-05-09T14:05:36.678Z,30.30
2018-05-09T14:08:04.187Z,30.30
2018-05-09T14:10:31.805Z,30.20
2018-05-09T14:12:59.552Z,30.60
2018-05-09T14:15:27.113Z,30.30
2018-05-09T14:17:55.599Z,31.10
2018-05-09T14:20:23.118Z,31.10
2018-05-09T14:22:50.552Z,31.90
2018-05-09T14:25:18.951Z,32.50
2018-05-09T14:27:46.351Z,32.50
2018-05-09T14:30:14.339Z,32.60
2018-05-09T14:32:41.791Z,33.30
2018-05-09T14:35:09.748Z,34.20
2018-05-09T14:37:37.245Z,34.60
2018-05-09T14:40:05.623Z,34.20
2018-05-09T14:42:34.045Z,34.30
2018-05-09T14:45:02.760Z,34.30
2018-05-09T14:47:30.734Z,34.90
2018-05-09T14:49:58.660Z,35.40
2018-05-09T14:52:26.221Z,35.90
2018-05-09T14:54:54.143Z,34.70
2018-05-09T14:57:21.941Z,34.70
2018-05-09T14:59:49.404Z,35.70
2018-05-09T15:02:16.992Z,37.00
2018-05-09T15:04:44.440Z,36.90
2018-05-09T15:07:12.646Z,35.70
2018-05-09T15:09:40.079Z,35.10
2018-05-09T15:12:07.592Z,33.90
2018-05-09T15:14:35.081Z,33.60
2018-05-09T15:17:02.542Z,34.00
2018-05-09T15:19:30.127Z,34.20
2018-05-09T15:21:57.567Z,33.90
2018-05-09T15:24:25.068Z,33.50
2018-05-09T15:26:52.611Z,33.90
2018-05-09T15:29:20.862Z,32.80
2018-05-09T15:31:48.858Z,32.80
2018-05-09T15:34:17.092Z,32.70
2018-05-09T15:36:45.015Z,32.60
2018-05-09T15:39:13.352Z,34.10
2018-05-09T15:41:41.127Z,34.10
2018-05-09T15:44:08.640Z,33.50
2018-05-09T15:46:36.635Z,33.40
2018-05-09T15:49:04.574Z,34.10
2018-05-09T15:51:33.415Z,34.60
2018-05-09T15:54:01.673Z,35.60
2018-05-09T15:56:29.810Z,35.60
2018-05-09T15:58:57.274Z,36.10
2018-05-09T16:01:24.857Z,35.30
2018-05-09T16:03:52.791Z,35.40
2018-05-09T16:06:20.244Z,34.50
2018-05-09T16:08:47.724Z,34.10
2018-05-09T16:11:15.351Z,33.70
2018-05-09T16:13:43.099Z,34.00
2018-05-09T16:16:12.137Z,34.30
2018-05-09T16:18:39.703Z,34.30
2018-05-09T16:21:07.254Z,34.50
2018-05-09T16:23:35.206Z,35.50
2018-05-09T16:26:02.917Z,34.90
2018-05-09T16:28:30.904Z,34.80
2018-05-09T16:30:59.769Z,35.50
2018-05-09T16:33:27.271Z,35.50
2018-05-09T16:35:55.401Z,36.30
2018-05-09T16:38:22.910Z,37.00
2018-05-09T16:40:50.998Z,35.90
2018-05-09T16:43:18.459Z,35.80
2018-05-09T16:45:46.440Z,35.10
2018-05-09T16:48:13.901Z,35.30
2018-05-09T16:50:41.664Z,35.10
2018-05-09T16:53:09.230Z,35.50
2018-05-09T16:55:37.399Z,35.10
2018-05-09T16:58:05.087Z,35.10
2018-05-09T17:00:32.541Z,35.30
2018-05-09T17:03:00.073Z,35.10
2018-05-09T17:05:27.548Z,35.70
2018-05-09T17:07:56.020Z,35.70
2018-05-09T17:10:25.558Z,36.20
2018-05-09T17:12:53.856Z,36.60
2018-05-09T17:15:21.284Z,36.50
2018-05-09T17:17:49.589Z,36.80
2018-05-09T17:20:17.124Z,36.80
2018-05-09T17:22:44.611Z,36.60
2018-05-09T17:25:13.315Z,36.80
2018-05-09T17:27:40.928Z,37.10
2018-05-09T17:30:09.619Z,37.10
2018-05-09T17:32:37.095Z,37.00
2018-05-09T17:35:05.145Z,37.00
2018-05-09T17:37:32.660Z,37.20
2018-05-09T17:40:00.107Z,37.30
2018-05-09T17:42:28.130Z,37.40
2018-05-09T17:44:56.033Z,37.60
2018-05-09T17:47:24.026Z,37.60
2018-05-09T17:49:51.495Z,37.80
2018-05-09T17:52:18.974Z,37.70
2018-05-09T17:54:47.923Z,38.10
2018-05-09T17:57:16.007Z,38.00
2018-05-09T17:59:43.501Z,38.50
2018-05-09T18:02:11.718Z,38.90
2018-05-09T18:04:39.205Z,38.80
2018-05-09T18:07:07.167Z,39.10
2018-05-09T18:09:34.691Z,39.50
2018-05-09T18:12:02.246Z,40.00
2018-05-09T18:14:29.946Z,40.30
2018-05-09T18:16:57.472Z,40.50
2018-05-09T18:19:24.920Z,41.00
2018-05-09T18:21:52.524Z,41.50
2018-05-09T18:24:20.279Z,41.80
2018-05-09T18:26:47.830Z,42.00
2018-05-09T18:29:15.257Z,42.40
2018-05-09T18:31:43.171Z,42.60
2018-05-09T18:34:11.384Z,42.60
2018-05-09T18:36:39.229Z,43.00
2018-05-09T18:39:08.209Z,44.00
2018-05-09T18:41:36.915Z,44.50
2018-05-09T18:44:04.401Z,44.20
2018-05-09T18:46:32.267Z,44.40
2018-05-09T18:48:59.748Z,44.50
2018-05-09T18:51:27.309Z,44.80
2018-05-09T18:53:54.833Z,45.00
2018-05-09T18:56:22.939Z,45.20
2018-05-09T18:58:50.494Z,45.70
2018-05-09T19:01:18.326Z,46.10
2018-05-09T19:03:46.549Z,46.10
2018-05-09T19:06:14.555Z,46.10
2018-05-09T19:08:42.861Z,46.80
2018-05-09T19:11:10.341Z,46.70
2018-05-09T19:13:37.836Z,46.70
2018-05-09T19:16:05.445Z,47.00
2018-05-09T19:18:32.922Z,47.40
2018-05-09T19:21:00.548Z,47.50
2018-05-09T19:23:27.993Z,47.20
2018-05-09T19:25:55.667Z,47.40
2018-05-09T19:28:23.509Z,47.40
2018-05-09T19:30:51.593Z,47.50
2018-05-09T19:33:19.559Z,47.70
2018-05-09T19:35:47.610Z,48.00
2018-05-09T19:38:15.160Z,48.10
2018-05-09T19:40:43.928Z,48.20
2018-05-09T19:43:11.462Z,48.20
2018-05-09T19:45:39.440Z,48.50
2018-05-09T19:48:06.936Z,48.80
2018-05-09T19:50:35.429Z,49.30
2018-05-09T19:53:02.944Z,49.30
2018-05-09T19:55:30.875Z,49.50
2018-05-09T19:58:00.193Z,49.70
2018-05-09T20:00:28.461Z,49.60
2018-05-09T20:02:55.959Z,49.70
2018-05-09T20:05:23.568Z,50.40
2018-05-09T20:07:51.077Z,50.20
2018-05-09T20:10:18.682Z,50.80
2018-05-09T20:12:46.279Z,51.00
2018-05-09T20:15:14.421Z,51.10
2018-05-09T20:17:42.174Z,51.10
2018-05-09T20:20:09.953Z,51.00
2018-05-09T20:22:37.460Z,50.90
2018-05-09T20:25:06.574Z,50.90
2018-05-09T20:27:34.286Z,50.80
2018-05-09T20:30:03.735Z,50.70
2018-05-09T20:32:39.453Z,51.00
2018-05-09T20:35:07.708Z,51.00
2018-05-09T20:37:35.203Z,51.20
2018-05-09T20:40:03.629Z,51.40
2018-05-09T20:42:31.549Z,51.30
2018-05-09T20:44:59.918Z,51.50
2018-05-09T20:47:27.882Z,51.60
2018-05-09T20:49:55.394Z,52.50
2018-05-09T20:52:23.042Z,52.00
2018-05-09T20:54:51.354Z,52.40
2018-05-09T20:57:19.500Z,52.30
2018-05-09T20:59:47.740Z,52.40
2018-05-09T21:02:16.052Z,52.50
2018-05-09T21:04:43.532Z,52.40
2018-05-09T21:07:11.178Z,52.70
2018-05-09T21:09:38.710Z,52.60
2018-05-09T21:12:08.907Z,52.60
2018-05-09T21:14:37.185Z,52.60
2018-05-09T21:17:04.611Z,52.60
2018-05-09T21:19:32.182Z,52.90
2018-05-09T21:22:00.243Z,53.20
2018-05-09T21:24:27.816Z,53.40
2018-05-09T21:26:55.313Z,53.40
2018-05-09T21:29:23.565Z,53.10
2018-05-09T21:31:52.050Z,52.80
2018-05-09T21:34:20.413Z,53.50
2018-05-09T21:36:48.259Z,52.80
2018-05-09T21:39:15.784Z,53.10
2018-05-09T21:41:43.545Z,53.20
2018-05-09T21:44:11.014Z,53.40
2018-05-09T21:46:38.934Z,53.70
2018-05-09T21:49:06.395Z,53.90
2018-05-09T21:51:34.604Z,53.90
2018-05-09T21:54:02.206Z,53.90
2018-05-09T21:56:30.362Z,53.70
2018-05-09T21:58:57.846Z,53.80
2018-05-09T22:01:26.070Z,54.10
2018-05-09T22:03:54.644Z,54.10
2018-05-09T22:06:22.488Z,54.10
2018-05-09T22:08:51.403Z,54.40
2018-05-09T22:11:18.866Z,54.30
2018-05-09T22:13:46.441Z,54.50
2018-05-09T22:16:13.923Z,54.50
2018-05-09T22:18:41.524Z,54.50
2018-05-09T22:21:08.996Z,54.20
2018-05-09T22:23:36.480Z,54.30
2018-05-09T22:26:04.005Z,54.60
2018-05-09T22:28:31.457Z,53.80
2018-05-09T22:30:59.483Z,53.80
2018-05-09T22:33:27.193Z,53.70
2018-05-09T22:35:55.039Z,53.70
2018-05-09T22:38:22.483Z,54.00
2018-05-09T22:40:51.558Z,54.10
2018-05-09T22:43:19.015Z,54.00
2018-05-09T22:45:46.735Z,54.40
2018-05-09T22:48:14.224Z,54.20
2018-05-09T22:50:43.227Z,54.10
2018-05-09T22:53:10.658Z,54.00
2018-05-09T22:55:38.193Z,54.20
2018-05-09T22:58:05.995Z,54.00
2018-05-09T23:00:33.562Z,54.20
2018-05-09T23:03:01.531Z,53.90
2018-05-09T23:05:29.015Z,54.20
2018-05-09T23:07:57.239Z,54.40
2018-05-09T23:10:26.260Z,54.30
2018-05-09T23:12:53.703Z,54.50
2018-05-09T23:15:21.167Z,54.30
2018-05-09T23:17:48.608Z,54.30
2018-05-09T23:20:16.397Z,54.20
2018-05-09T23:22:43.858Z,54.40
2018-05-09T23:25:11.306Z,54.40
2018-05-09T23:27:38.840Z,54.20
2018-05-09T23:30:06.717Z,54.00
2018-05-09T23:32:34.249Z,54.10
2018-05-09T23:35:02.068Z,54.00
2018-05-09T23:37:30.311Z,54.30
2018-05-09T23:39:57.793Z,54.20
2018-05-09T23:42:25.556Z,54.40
2018-05-09T23:44:53.017Z,54.30
2018-05-09T23:47:21.721Z,54.70
2018-05-09T23:49:50.470Z,54.80
2018-05-09T23:52:17.980Z,54.80
2018-05-09T23:54:46.277Z,55.20
2018-05-09T23:57:14.188Z,55.00
2018-05-09T23:59:41.714Z,55.40
